Time;durP1;ratioP1;P1;durP2;ratioP2;P2;SDS_P1;SDS_P2;PMS_P1;PMS_P2;Temp;Humidity;BMP_temperature;BMP_pressure;BME280_temperature;BME280_humidity;BME280_pressure;Samples;Min_cycle;Max_cycle;Signal;HPM_P1;HPM_P2
2023/08/05 00:00:53;;;;;;;8.35;3.70;;;;;;;;;;4978920;28;20042;-78
2023/08/05 00:03:19;;;;;;;9.02;3.42;;;;;;;;;;4976137;28;20050;-77
2023/08/05 00:05:45;;;;;;;10.35;3.88;;;;;;;;;;4977658;28;20053;-78
2023/08/05 00:08:11;;;;;;;9.57;3.70;;;;;;;;;;4976078;28;20050;-78
2023/08/05 00:10:42;;;;;;;9.48;3.80;;;;;;;;;;4977287;28;20528;-78
2023/08/05 00:13:08;;;;;;;10.45;3.72;;;;;;;;;;4973385;28;20050;-77
2023/08/05 00:15:34;;;;;;;8.05;3.20;;;;;;;;;;4975921;28;20051;-77
2023/08/05 00:18:00;;;;;;;9.55;3.80;;;;;;;;;;4976517;28;20057;-77
2023/08/05 00:20:26;;;;;;;7.85;3.30;;;;;;;;;;4976010;28;20055;-77
2023/08/05 00:22:52;;;;;;;7.07;3.35;;;;;;;;;;4974578;28;20056;-78
2023/08/05 00:25:19;;;;;;;8.15;3.30;;;;;;;;;;4972027;28;20082;-77
2023/08/05 00:27:45;;;;;;;8.32;3.45;;;;;;;;;;4974092;28;20414;-78
2023/08/05 00:30:11;;;;;;;8.80;3.60;;;;;;;;;;4972856;28;20043;-78
2023/08/05 00:32:37;;;;;;;8.93;3.50;;;;;;;;;;4975338;28;20053;-77
2023/08/05 00:35:05;;;;;;;10.05;3.80;;;;;;;;;;4974624;28;20047;-77
2023/08/05 00:37:31;;;;;;;11.15;3.60;;;;;;;;;;4975951;28;20102;-77
2023/08/05 00:39:57;;;;;;;10.25;3.50;;;;;;;;;;4975609;28;20065;-77
2023/08/05 00:42:23;;;;;;;8.73;3.72;;;;;;;;;;4973361;28;20047;-77
2023/08/05 00:44:49;;;;;;;10.55;3.85;;;;;;;;;;4974393;28;20117;-78
2023/08/05 00:47:20;;;;;;;8.52;3.65;;;;;;;;;;4975218;28;20047;-77
2023/08/05 00:49:46;;;;;;;9.20;3.33;;;;;;;;;;4973569;28;20118;-78
2023/08/05 00:52:14;;;;;;;8.82;3.78;;;;;;;;;;4975019;28;20409;-78
2023/08/05 00:54:40;;;;;;;7.72;3.10;;;;;;;;;;4974997;28;20097;-78
2023/08/05 00:57:07;;;;;;;13.10;3.53;;;;;;;;;;4975173;28;20086;-78
2023/08/05 00:59:33;;;;;;;10.15;3.38;;;;;;;;;;4974628;28;20046;-78
2023/08/05 01:01:59;;;;;;;7.03;3.33;;;;;;;;;;4974971;28;20047;-78
2023/08/05 01:04:25;;;;;;;9.15;3.10;;;;;;;;;;4975029;28;20054;-77
2023/08/05 01:06:51;;;;;;;8.43;3.53;;;;;;;;;;4972850;28;20046;-77
2023/08/05 01:09:19;;;;;;;8.25;3.28;;;;;;;;;;4973980;28;20051;-78
2023/08/05 01:11:45;;;;;;;8.88;3.40;;;;;;;;;;4972198;28;20126;-78
2023/08/05 01:14:11;;;;;;;8.43;3.72;;;;;;;;;;4957940;28;20497;-77
2023/08/05 01:16:37;;;;;;;11.27;3.70;;;;;;;;;;4975341;28;20046;-78
2023/08/05 01:19:05;;;;;;;8.63;3.72;;;;;;;;;;4958606;28;20406;-78
2023/08/05 01:21:31;;;;;;;10.93;3.40;;;;;;;;;;4971703;28;20058;-77
2023/08/05 01:24:14;;;;;;;10.82;3.58;;;;;;;;;;4973522;28;20051;-78
2023/08/05 01:26:40;;;;;;;7.82;3.30;;;;;;;;;;4974573;28;20050;-77
2023/08/05 01:29:07;;;;;;;7.78;3.50;;;;;;;;;;4973522;28;20108;-78
2023/08/05 01:31:33;;;;;;;8.95;3.80;;;;;;;;;;4974149;28;20070;-78
2023/08/05 01:34:00;;;;;;;8.75;3.65;;;;;;;;;;4973152;28;20043;-78
2023/08/05 01:36:26;;;;;;;9.25;3.70;;;;;;;;;;4973558;28;20034;-79
2023/08/05 01:38:52;;;;;;;9.23;3.33;;;;;;;;;;4973576;28;20061;-78
2023/08/05 01:41:18;;;;;;;7.28;3.38;;;;;;;;;;4973785;28;20141;-78
2023/08/05 01:43:45;;;;;;;8.82;3.70;;;;;;;;;;4974863;28;20050;-79
2023/08/05 01:46:11;;;;;;;8.80;3.65;;;;;;;;;;4975430;28;20397;-78
2023/08/05 01:48:37;;;;;;;7.32;3.70;;;;;;;;;;4975409;28;20122;-78
2023/08/05 01:51:03;;;;;;;8.75;3.50;;;;;;;;;;4957406;28;20047;-79
2023/08/05 01:53:29;;;;;;;8.68;3.80;;;;;;;;;;4976831;28;20109;-79
2023/08/05 01:55:55;;;;;;;10.40;3.97;;;;;;;;;;4974520;28;20672;-79
2023/08/05 01:58:21;;;;;;;12.10;3.92;;;;;;;;;;4975087;28;20046;-78
2023/08/05 02:00:50;;;;;;;8.68;4.00;;;;;;;;;;4972166;28;20062;-78
2023/08/05 02:03:17;;;;;;;12.27;4.10;;;;;;;;;;4975013;28;20109;-78
2023/08/05 02:05:43;;;;;;;11.23;3.95;;;;;;;;;;4970811;28;20145;-77
2023/08/05 02:08:09;;;;;;;7.95;3.35;;;;;;;;;;4974983;28;20043;-78
2023/08/05 02:10:36;;;;;;;10.30;4.00;;;;;;;;;;4973939;28;20159;-78
2023/08/05 02:13:03;;;;;;;8.00;3.97;;;;;;;;;;4974249;28;20512;-77
2023/08/05 02:15:29;;;;;;;9.80;4.00;;;;;;;;;;4973469;28;20042;-77
2023/08/05 02:17:55;;;;;;;9.10;3.60;;;;;;;;;;4974623;28;20050;-78
2023/08/05 02:20:21;;;;;;;8.25;3.67;;;;;;;;;;4972192;28;20055;-78
2023/08/05 02:22:47;;;;;;;7.88;3.47;;;;;;;;;;4974068;28;20133;-78
2023/08/05 02:25:14;;;;;;;8.85;3.90;;;;;;;;;;4974653;28;20045;-78
2023/08/05 02:27:40;;;;;;;8.65;3.58;;;;;;;;;;4974781;28;20051;-78
2023/08/05 02:30:06;;;;;;;8.82;3.53;;;;;;;;;;4974512;28;20116;-78
2023/08/05 02:32:32;;;;;;;9.68;3.70;;;;;;;;;;4973802;28;20416;-76
2023/08/05 02:34:58;;;;;;;7.55;3.75;;;;;;;;;;4974260;28;20113;-78
2023/08/05 02:37:24;;;;;;;9.40;3.78;;;;;;;;;;4973540;28;20039;-77
2023/08/05 02:39:50;;;;;;;9.27;3.90;;;;;;;;;;4974247;28;20061;-78
2023/08/05 02:42:16;;;;;;;10.38;3.63;;;;;;;;;;4974129;28;20512;-78
2023/08/05 02:44:43;;;;;;;8.38;4.47;;;;;;;;;;4962339;28;20050;-77
2023/08/05 02:47:09;;;;;;;8.77;3.78;;;;;;;;;;4974948;28;20046;-77
2023/08/05 02:49:35;;;;;;;10.65;4.10;;;;;;;;;;4972591;28;20065;-77
2023/08/05 02:52:01;;;;;;;8.82;3.80;;;;;;;;;;4973404;28;20054;-77
2023/08/05 02:54:27;;;;;;;8.00;4.63;;;;;;;;;;4974446;28;20053;-78
2023/08/05 02:56:53;;;;;;;6.97;3.90;;;;;;;;;;4977350;28;20039;-77
2023/08/05 02:59:19;;;;;;;7.93;4.47;;;;;;;;;;4973832;28;20464;-77
2023/08/05 03:01:46;;;;;;;12.20;4.57;;;;;;;;;;4977037;28;20042;-77
2023/08/05 03:04:12;;;;;;;7.88;4.32;;;;;;;;;;4977061;28;20047;-77
2023/08/05 03:06:38;;;;;;;8.57;4.07;;;;;;;;;;4976661;28;20093;-77
2023/08/05 03:09:04;;;;;;;8.20;4.00;;;;;;;;;;4976646;28;20053;-77
2023/08/05 03:11:31;;;;;;;11.40;4.47;;;;;;;;;;4975523;28;20409;-78
2023/08/05 03:13:57;;;;;;;12.77;4.00;;;;;;;;;;4976817;28;20047;-77
2023/08/05 03:16:23;;;;;;;12.38;4.18;;;;;;;;;;4977062;28;20126;-78
2023/08/05 03:18:49;;;;;;;11.50;4.05;;;;;;;;;;4976910;28;20050;-78
2023/08/05 03:21:15;;;;;;;13.68;4.00;;;;;;;;;;4976297;28;20089;-77
2023/08/05 03:23:41;;;;;;;9.48;4.32;;;;;;;;;;4977709;28;20062;-78
2023/08/05 03:26:07;;;;;;;11.05;4.25;;;;;;;;;;4977629;28;20077;-79
2023/08/05 03:28:33;;;;;;;9.98;4.70;;;;;;;;;;4974582;28;20047;-79
2023/08/05 03:30:59;;;;;;;7.20;4.00;;;;;;;;;;4977154;28;20050;-78
2023/08/05 03:33:26;;;;;;;13.57;4.80;;;;;;;;;;4977525;28;20501;-78
2023/08/05 03:35:52;;;;;;;12.13;5.32;;;;;;;;;;4977170;28;20069;-78
2023/08/05 03:38:18;;;;;;;10.63;5.18;;;;;;;;;;4977015;28;20043;-78
2023/08/05 03:40:44;;;;;;;10.38;4.78;;;;;;;;;;4977820;28;20109;-77
2023/08/05 03:43:11;;;;;;;9.63;5.10;;;;;;;;;;4976766;28;20098;-78
2023/08/05 03:45:37;;;;;;;10.88;5.07;;;;;;;;;;4977225;28;20511;-77
2023/08/05 03:48:03;;;;;;;8.80;5.00;;;;;;;;;;4976661;28;20497;-78
2023/08/05 03:50:29;;;;;;;11.88;4.93;;;;;;;;;;4976581;28;20042;-77
2023/08/05 03:52:57;;;;;;;8.90;5.00;;;;;;;;;;4976577;28;20410;-78
2023/08/05 03:55:23;;;;;;;11.23;5.00;;;;;;;;;;4976688;28;20139;-78
2023/08/05 03:57:50;;;;;;;10.82;5.30;;;;;;;;;;4974881;28;20055;-78
2023/08/05 04:00:17;;;;;;;10.80;5.28;;;;;;;;;;4976800;28;20157;-78
2023/08/05 04:02:43;;;;;;;8.35;4.93;;;;;;;;;;4975340;28;20101;-78
2023/08/05 04:05:09;;;;;;;9.40;5.15;;;;;;;;;;4975779;28;20386;-78
2023/08/05 04:07:36;;;;;;;7.65;5.00;;;;;;;;;;4975117;28;20047;-78
2023/08/05 04:10:03;;;;;;;9.93;5.60;;;;;;;;;;4977193;28;20129;-79
2023/08/05 04:12:30;;;;;;;8.80;4.82;;;;;;;;;;4976229;28;20050;-79
2023/08/05 04:14:58;;;;;;;9.27;4.60;;;;;;;;;;4976968;28;20051;-79
2023/08/05 04:17:24;;;;;;;11.68;4.88;;;;;;;;;;4975130;28;20038;-77
2023/08/05 04:19:50;;;;;;;10.32;5.47;;;;;;;;;;4973841;28;20057;-77
2023/08/05 04:22:20;;;;;;;9.60;5.10;;;;;;;;;;4975160;28;20054;-77
2023/08/05 04:24:46;;;;;;;11.30;4.88;;;;;;;;;;4971859;28;20062;-78
2023/08/05 04:27:12;;;;;;;11.57;5.00;;;;;;;;;;4960186;28;20489;-79
2023/08/05 04:29:38;;;;;;;13.25;5.20;;;;;;;;;;4974387;28;20038;-78
2023/08/05 04:32:05;;;;;;;11.23;5.00;;;;;;;;;;4974611;28;20062;-78
2023/08/05 04:34:36;;;;;;;8.38;5.03;;;;;;;;;;4975733;28;20047;-77
2023/08/05 04:37:15;;;;;;;10.43;4.60;;;;;;;;;;4975026;28;20074;-77
2023/08/05 04:39:42;;;;;;;10.32;4.93;;;;;;;;;;4973921;28;20058;-79
2023/08/05 04:42:08;;;;;;;10.35;5.38;;;;;;;;;;4973620;28;20127;-77
2023/08/05 04:44:34;;;;;;;8.77;4.80;;;;;;;;;;4975747;28;20078;-78
2023/08/05 04:47:00;;;;;;;9.30;4.97;;;;;;;;;;4975320;28;20051;-78
2023/08/05 04:49:26;;;;;;;11.00;4.70;;;;;;;;;;4974261;28;21029;-78
2023/08/05 04:51:52;;;;;;;9.18;4.78;;;;;;;;;;4974614;28;20056;-77
2023/08/05 04:54:18;;;;;;;11.23;4.88;;;;;;;;;;4975263;28;20046;-78
2023/08/05 04:56:44;;;;;;;9.40;4.55;;;;;;;;;;4975999;28;20393;-79
2023/08/05 04:59:10;;;;;;;9.50;4.97;;;;;;;;;;4975144;28;20043;-78
2023/08/05 05:01:36;;;;;;;7.00;4.15;;;;;;;;;;4973718;28;20047;-79
2023/08/05 05:04:02;;;;;;;7.50;4.40;;;;;;;;;;4975970;28;20489;-78
2023/08/05 05:06:28;;;;;;;7.07;4.68;;;;;;;;;;4974484;28;20496;-78
2023/08/05 05:08:54;;;;;;;8.65;4.57;;;;;;;;;;4966635;28;20058;-77
2023/08/05 05:11:21;;;;;;;7.82;5.00;;;;;;;;;;4974284;28;20059;-77
2023/08/05 05:13:50;;;;;;;9.55;5.18;;;;;;;;;;4974372;28;20438;-78
2023/08/05 05:16:17;;;;;;;9.13;5.43;;;;;;;;;;4974548;28;20058;-78
2023/08/05 05:18:44;;;;;;;9.73;5.28;;;;;;;;;;4973182;28;20051;-77
2023/08/05 05:21:10;;;;;;;10.07;5.00;;;;;;;;;;4972511;28;20063;-78
2023/08/05 05:23:36;;;;;;;7.97;5.18;;;;;;;;;;4975059;28;20062;-78
2023/08/05 05:26:02;;;;;;;9.75;5.32;;;;;;;;;;4975748;28;20099;-79
2023/08/05 05:28:28;;;;;;;8.88;4.97;;;;;;;;;;4975404;28;20038;-78
2023/08/05 05:30:54;;;;;;;10.73;4.60;;;;;;;;;;4974510;28;20057;-78
2023/08/05 05:33:20;;;;;;;8.27;4.13;;;;;;;;;;4975197;28;20047;-78
2023/08/05 05:35:49;;;;;;;8.82;4.13;;;;;;;;;;4974484;28;20405;-79
2023/08/05 05:38:15;;;;;;;9.43;4.05;;;;;;;;;;4975578;28;20039;-78
2023/08/05 05:40:41;;;;;;;11.05;3.75;;;;;;;;;;4975009;28;20057;-78
2023/08/05 05:43:08;;;;;;;9.55;4.00;;;;;;;;;;4974097;28;20046;-78
2023/08/05 05:45:37;;;;;;;8.75;3.28;;;;;;;;;;4971686;28;20066;-78
2023/08/05 05:48:03;;;;;;;12.05;3.85;;;;;;;;;;4971622;28;20074;-78
2023/08/05 05:50:29;;;;;;;6.78;3.33;;;;;;;;;;4973996;28;20121;-77
2023/08/05 05:52:55;;;;;;;7.82;3.10;;;;;;;;;;4974616;28;20089;-78
2023/08/05 05:55:22;;;;;;;9.68;2.70;;;;;;;;;;4974616;28;20046;-78
2023/08/05 05:57:48;;;;;;;8.15;2.72;;;;;;;;;;4974078;28;20133;-78
2023/08/05 06:00:15;;;;;;;7.07;2.42;;;;;;;;;;4974168;28;20055;-78
2023/08/05 06:02:41;;;;;;;6.38;2.30;;;;;;;;;;4972070;28;20167;-78
2023/08/05 06:05:08;;;;;;;8.57;2.60;;;;;;;;;;4972327;28;20039;-79
2023/08/05 06:07:34;;;;;;;9.23;2.70;;;;;;;;;;4973807;28;20054;-78
2023/08/05 06:10:00;;;;;;;6.85;2.55;;;;;;;;;;4972711;28;20039;-78
2023/08/05 06:12:32;;;;;;;7.03;2.72;;;;;;;;;;4966125;28;20051;-78
2023/08/05 06:14:59;;;;;;;5.75;2.47;;;;;;;;;;4971193;28;20525;-78
2023/08/05 06:17:26;;;;;;;8.32;2.70;;;;;;;;;;4973985;28;20059;-77
2023/08/05 06:19:52;;;;;;;7.65;2.70;;;;;;;;;;4973891;28;20086;-77
2023/08/05 06:22:18;;;;;;;7.55;2.67;;;;;;;;;;4974052;28;20062;-78
2023/08/05 06:24:45;;;;;;;8.57;2.88;;;;;;;;;;4974384;28;20134;-77
2023/08/05 06:27:11;;;;;;;6.88;2.65;;;;;;;;;;4973442;28;20504;-78
2023/08/05 06:29:37;;;;;;;6.72;2.65;;;;;;;;;;4974928;28;20145;-78
2023/08/05 06:32:03;;;;;;;6.00;2.80;;;;;;;;;;4976914;28;20069;-77
2023/08/05 06:34:29;;;;;;;6.32;2.40;;;;;;;;;;4972063;28;20049;-77
2023/08/05 06:36:55;;;;;;;5.90;2.40;;;;;;;;;;4966429;28;20420;-78
2023/08/05 06:39:21;;;;;;;9.80;2.15;;;;;;;;;;4976990;28;20050;-77
2023/08/05 06:41:47;;;;;;;7.28;2.58;;;;;;;;;;4975773;28;20047;-78
2023/08/05 06:44:13;;;;;;;6.45;2.15;;;;;;;;;;4965870;28;20082;-78
2023/08/05 06:46:39;;;;;;;6.47;2.30;;;;;;;;;;4973168;28;20106;-78
2023/08/05 06:49:06;;;;;;;5.25;2.00;;;;;;;;;;4967893;28;20055;-77
2023/08/05 06:51:32;;;;;;;9.27;1.98;;;;;;;;;;4966082;28;20046;-77
2023/08/05 06:53:59;;;;;;;7.18;2.55;;;;;;;;;;4965729;28;20035;-76
2023/08/05 06:56:25;;;;;;;6.70;2.20;;;;;;;;;;4968204;28;20046;-76
2023/08/05 06:58:51;;;;;;;5.07;1.90;;;;;;;;;;4971571;28;20054;-77
2023/08/05 07:01:17;;;;;;;5.13;2.10;;;;;;;;;;4974644;28;20046;-77
2023/08/05 07:03:44;;;;;;;8.13;2.28;;;;;;;;;;4977219;28;20042;-77
2023/08/05 07:06:10;;;;;;;6.10;2.33;;;;;;;;;;4977173;28;20358;-77
2023/08/05 07:08:36;;;;;;;6.55;2.22;;;;;;;;;;4975169;28;20125;-77
2023/08/05 07:11:02;;;;;;;7.82;2.33;;;;;;;;;;4975327;28;20504;-77
2023/08/05 07:13:28;;;;;;;7.15;2.25;;;;;;;;;;4976756;28;20043;-76
2023/08/05 07:16:04;;;;;;;6.18;1.90;;;;;;;;;;4975601;28;20227;-77
2023/08/05 07:18:30;;;;;;;11.13;2.35;;;;;;;;;;4976731;28;20051;-77
2023/08/05 07:20:57;;;;;;;7.75;2.75;;;;;;;;;;4972045;28;20090;-77
2023/08/05 07:23:24;;;;;;;6.93;2.03;;;;;;;;;;4966846;28;20059;-78
2023/08/05 07:25:50;;;;;;;8.07;2.33;;;;;;;;;;4972603;28;20058;-77
2023/08/05 07:28:16;;;;;;;7.82;2.53;;;;;;;;;;4974895;28;20042;-77
2023/08/05 07:30:42;;;;;;;6.72;2.20;;;;;;;;;;4962963;28;20138;-78
2023/08/05 07:33:09;;;;;;;6.72;2.20;;;;;;;;;;4968251;28;20062;-78
2023/08/05 07:35:38;;;;;;;5.47;2.00;;;;;;;;;;4966762;28;20051;-77
2023/08/05 07:38:09;;;;;;;6.20;2.03;;;;;;;;;;4970651;28;20046;-77
2023/08/05 07:40:36;;;;;;;7.65;2.47;;;;;;;;;;4977009;28;20042;-78
2023/08/05 07:43:03;;;;;;;7.07;2.30;;;;;;;;;;4968613;28;20170;-78
2023/08/05 07:45:29;;;;;;;5.50;2.35;;;;;;;;;;4974814;28;20122;-78
2023/08/05 07:47:58;;;;;;;8.18;2.20;;;;;;;;;;4974238;28;20800;-75
2023/08/05 07:50:24;;;;;;;9.90;2.92;;;;;;;;;;4957506;28;20129;-77
2023/08/05 07:52:51;;;;;;;6.05;2.30;;;;;;;;;;4974737;28;20051;-78
2023/08/05 07:55:18;;;;;;;5.93;2.30;;;;;;;;;;4975134;28;20051;-77
2023/08/05 07:57:46;;;;;;;5.72;2.10;;;;;;;;;;4975863;28;20612;-76
2023/08/05 08:00:13;;;;;;;6.75;2.85;;;;;;;;;;4974357;28;20069;-76
2023/08/05 08:02:44;;;;;;;6.72;2.33;;;;;;;;;;4975463;28;20118;-76
2023/08/05 08:05:13;;;;;;;8.85;2.33;;;;;;;;;;4973799;28;20102;-77
2023/08/05 08:07:44;;;;;;;7.25;2.50;;;;;;;;;;4975865;28;20055;-77
2023/08/05 08:10:11;;;;;;;8.45;2.30;;;;;;;;;;4985685;28;20046;-79
2023/08/05 08:12:37;;;;;;;7.60;2.10;;;;;;;;;;4979174;28;20038;-77
2023/08/05 08:15:03;;;;;;;8.35;2.63;;;;;;;;;;4958447;28;20057;-76
2023/08/05 08:17:29;;;;;;;7.05;2.47;;;;;;;;;;4971178;28;20501;-77
2023/08/05 08:19:55;;;;;;;14.38;2.63;;;;;;;;;;4973467;28;20039;-71
2023/08/05 08:22:21;;;;;;;10.00;2.53;;;;;;;;;;4966563;28;20055;-71
2023/08/05 08:24:47;;;;;;;4.95;1.80;;;;;;;;;;4970162;28;20074;-70
2023/08/05 08:27:13;;;;;;;9.82;2.00;;;;;;;;;;4973431;28;20536;-70
2023/08/05 08:29:40;;;;;;;7.40;1.80;;;;;;;;;;4975444;28;20054;-70
2023/08/05 08:32:06;;;;;;;5.55;1.88;;;;;;;;;;4972529;28;20051;-71
2023/08/05 08:34:32;;;;;;;6.68;1.80;;;;;;;;;;4984259;28;20149;-70
2023/08/05 08:36:58;;;;;;;5.38;2.10;;;;;;;;;;4981441;28;20397;-72
2023/08/05 08:39:24;;;;;;;5.32;1.90;;;;;;;;;;4973063;28;20050;-71
2023/08/05 08:41:51;;;;;;;6.15;2.03;;;;;;;;;;4957660;28;20458;-71
2023/08/05 08:44:17;;;;;;;6.78;2.08;;;;;;;;;;4968622;28;20046;-71
2023/08/05 08:46:44;;;;;;;6.07;2.00;;;;;;;;;;4972496;28;20047;-71
2023/08/05 08:49:12;;;;;;;6.00;1.85;;;;;;;;;;4972625;28;20078;-71
2023/08/05 08:51:38;;;;;;;8.45;2.20;;;;;;;;;;4972424;28;20050;-70
2023/08/05 08:54:04;;;;;;;6.18;1.80;;;;;;;;;;4971709;28;20078;-70
2023/08/05 08:56:31;;;;;;;6.00;2.10;;;;;;;;;;4972278;28;20046;-71
2023/08/05 08:58:57;;;;;;;8.70;2.30;;;;;;;;;;4972863;28;20059;-70
2023/08/05 09:01:23;;;;;;;7.50;2.30;;;;;;;;;;4972705;28;20046;-71
2023/08/05 09:03:52;;;;;;;7.45;2.08;;;;;;;;;;4973127;28;20050;-71
2023/08/05 09:06:23;;;;;;;5.88;1.85;;;;;;;;;;4972997;28;20051;-71
2023/08/05 09:08:50;;;;;;;5.70;1.70;;;;;;;;;;4974341;28;20064;-69
2023/08/05 09:11:16;;;;;;;6.75;2.03;;;;;;;;;;4972868;28;20050;-70
2023/08/05 09:13:43;;;;;;;5.43;2.00;;;;;;;;;;4968516;28;20047;-70
2023/08/05 09:16:13;;;;;;;8.77;2.22;;;;;;;;;;4972309;28;20055;-71
2023/08/05 09:19:01;;;;;;;6.60;1.73;;;;;;;;;;4986962;28;20050;-71
2023/08/05 09:21:28;;;;;;;4.78;1.75;;;;;;;;;;4967107;28;20799;-70
2023/08/05 09:23:55;;;;;;;7.38;1.88;;;;;;;;;;4973458;28;20053;-71
2023/08/05 09:26:30;;;;;;;6.53;2.22;;;;;;;;;;4977003;28;20088;-70
2023/08/05 09:28:56;;;;;;;5.10;1.88;;;;;;;;;;4995762;28;20473;-70
2023/08/05 09:31:23;;;;;;;4.88;1.90;;;;;;;;;;4976792;28;20081;-71
2023/08/05 09:33:49;;;;;;;5.25;1.88;;;;;;;;;;4975372;28;20043;-70
2023/08/05 09:36:16;;;;;;;4.45;2.03;;;;;;;;;;4975452;28;20097;-70
2023/08/05 09:38:45;;;;;;;5.88;1.70;;;;;;;;;;4969611;28;20047;-70
2023/08/05 09:41:11;;;;;;;5.35;1.70;;;;;;;;;;4961100;28;20043;-71
2023/08/05 09:43:40;;;;;;;5.03;1.67;;;;;;;;;;4967872;28;20058;-72
2023/08/05 09:46:11;;;;;;;6.78;1.80;;;;;;;;;;4973846;28;20042;-71
2023/08/05 09:48:46;;;;;;;4.90;1.55;;;;;;;;;;4972575;28;20043;-72
2023/08/05 09:51:16;;;;;;;6.82;1.52;;;;;;;;;;4973641;28;20458;-71
2023/08/05 09:53:46;;;;;;;5.73;1.77;;;;;;;;;;4973531;28;20122;-71
2023/08/05 09:56:12;;;;;;;5.30;1.90;;;;;;;;;;4964864;28;20309;-71
2023/08/05 09:58:39;;;;;;;7.40;2.35;;;;;;;;;;4961354;28;20054;-70
2023/08/05 10:01:07;;;;;;;5.88;1.90;;;;;;;;;;4969756;28;20054;-71
2023/08/05 10:03:35;;;;;;;6.57;2.15;;;;;;;;;;4973476;28;20047;-72
2023/08/05 10:06:03;;;;;;;5.28;2.17;;;;;;;;;;4976331;28;20524;-71
2023/08/05 10:08:30;;;;;;;4.32;2.00;;;;;;;;;;4976920;28;20050;-71
2023/08/05 10:10:57;;;;;;;5.68;1.98;;;;;;;;;;4975832;28;20051;-72
2023/08/05 10:13:23;;;;;;;5.97;2.42;;;;;;;;;;4976032;28;20374;-73
2023/08/05 10:15:54;;;;;;;4.53;1.90;;;;;;;;;;4977631;28;20449;-72
2023/08/05 10:18:21;;;;;;;5.28;1.95;;;;;;;;;;4969747;28;20047;-70
2023/08/05 10:20:51;;;;;;;5.65;2.13;;;;;;;;;;4968338;28;20055;-71
2023/08/05 10:23:17;;;;;;;5.13;1.80;;;;;;;;;;4964694;28;20446;-71
2023/08/05 10:25:44;;;;;;;4.40;1.90;;;;;;;;;;4976900;28;20124;-71
2023/08/05 10:28:11;;;;;;;6.38;1.90;;;;;;;;;;4976337;28;20112;-72
2023/08/05 10:30:41;;;;;;;5.90;1.92;;;;;;;;;;4970672;28;20516;-72
2023/08/05 10:33:08;;;;;;;5.00;2.10;;;;;;;;;;4966856;28;20126;-71
2023/08/05 10:35:40;;;;;;;7.80;2.00;;;;;;;;;;4976238;28;20129;-70
2023/08/05 10:38:16;;;;;;;5.72;1.77;;;;;;;;;;4975938;28;20046;-69
2023/08/05 10:40:48;;;;;;;4.07;1.65;;;;;;;;;;4975012;28;20075;-71
2023/08/05 10:43:41;;;;;;;5.28;1.52;;;;;;;;;;4977068;28;20190;-70
2023/08/05 10:46:07;;;;;;;3.58;1.40;;;;;;;;;;4975659;28;20141;-72
2023/08/05 10:48:43;;;;;;;4.00;1.23;;;;;;;;;;4976001;28;20050;-72
2023/08/05 10:51:12;;;;;;;5.32;1.48;;;;;;;;;;4975488;28;20078;-72
2023/08/05 10:53:38;;;;;;;3.20;1.20;;;;;;;;;;4976776;28;20137;-72
2023/08/05 10:56:08;;;;;;;3.58;1.48;;;;;;;;;;4976508;28;20450;-72
2023/08/05 10:58:43;;;;;;;4.60;1.50;;;;;;;;;;4972970;28;20096;-72
2023/08/05 11:01:09;;;;;;;4.95;2.00;;;;;;;;;;4971060;28;20707;-72
2023/08/05 11:03:41;;;;;;;5.55;1.85;;;;;;;;;;4975122;28;20043;-72
2023/08/05 11:06:07;;;;;;;4.15;1.70;;;;;;;;;;4975510;28;20046;-73
2023/08/05 11:08:34;;;;;;;5.07;1.60;;;;;;;;;;4974973;28;20054;-73
2023/08/05 11:11:01;;;;;;;4.20;1.83;;;;;;;;;;4971420;28;20050;-72
2023/08/05 11:13:27;;;;;;;5.78;2.10;;;;;;;;;;4975914;28;20078;-72
2023/08/05 11:16:01;;;;;;;6.20;2.00;;;;;;;;;;4975433;28;20486;-71
2023/08/05 11:18:28;;;;;;;5.10;2.00;;;;;;;;;;4974465;28;20042;-72
2023/08/05 11:20:54;;;;;;;6.13;1.70;;;;;;;;;;4958215;28;20129;-71
2023/08/05 11:23:21;;;;;;;6.30;2.38;;;;;;;;;;4976103;28;20461;-72
2023/08/05 11:25:47;;;;;;;5.40;2.35;;;;;;;;;;4975869;28;20054;-71
2023/08/05 11:28:13;;;;;;;7.22;2.53;;;;;;;;;;4975981;28;20090;-72
2023/08/05 11:30:39;;;;;;;5.28;2.38;;;;;;;;;;4972283;28;20079;-72
2023/08/05 11:33:06;;;;;;;5.13;2.75;;;;;;;;;;4975787;28;20039;-73
2023/08/05 11:35:32;;;;;;;5.40;2.38;;;;;;;;;;4975254;28;20047;-73
2023/08/05 11:37:58;;;;;;;6.40;2.67;;;;;;;;;;4971012;28;20055;-72
2023/08/05 11:40:25;;;;;;;6.07;3.05;;;;;;;;;;4966531;28;20047;-73
2023/08/05 11:42:54;;;;;;;6.25;3.90;;;;;;;;;;4972152;28;20401;-74
2023/08/05 11:45:20;;;;;;;6.95;4.45;;;;;;;;;;4974065;28;20078;-72
2023/08/05 11:47:47;;;;;;;7.22;5.70;;;;;;;;;;4967618;28;20054;-72
2023/08/05 11:50:13;;;;;;;8.02;6.15;;;;;;;;;;4969758;28;20034;-73
2023/08/05 11:52:39;;;;;;;9.35;6.40;;;;;;;;;;4975496;28;20046;-72
2023/08/05 11:55:07;;;;;;;9.57;6.88;;;;;;;;;;4973682;28;20467;-72
2023/08/05 11:57:33;;;;;;;8.18;6.40;;;;;;;;;;4955800;28;20055;-72
2023/08/05 12:00:09;;;;;;;9.88;6.45;;;;;;;;;;4964816;28;20402;-71
2023/08/05 12:02:36;;;;;;;8.65;6.10;;;;;;;;;;4978960;28;20039;-79
2023/08/05 12:05:03;;;;;;;8.20;5.63;;;;;;;;;;4973941;28;20488;-79
2023/08/05 12:07:30;;;;;;;10.18;5.32;;;;;;;;;;4960940;28;20489;-79
2023/08/05 12:10:09;;;;;;;9.80;5.05;;;;;;;;;;4972502;28;20051;-78
2023/08/05 12:12:36;;;;;;;10.10;4.97;;;;;;;;;;4972478;28;20086;-80
2023/08/05 12:15:19;;;;;;;7.72;4.43;;;;;;;;;;4981141;28;20149;-79
2023/08/05 12:17:49;;;;;;;7.43;4.53;;;;;;;;;;4978978;28;20075;-79
2023/08/05 12:20:17;;;;;;;7.65;4.35;;;;;;;;;;4978852;28;20413;-80
2023/08/05 12:22:43;;;;;;;8.93;3.97;;;;;;;;;;4962891;28;20470;-79
2023/08/05 12:25:09;;;;;;;6.80;3.95;;;;;;;;;;4960924;28;20051;-79
2023/08/05 12:27:36;;;;;;;8.15;4.07;;;;;;;;;;4963923;28;20232;-79
2023/08/05 12:30:02;;;;;;;9.30;4.07;;;;;;;;;;4969681;28;20055;-79
2023/08/05 12:32:28;;;;;;;5.85;3.30;;;;;;;;;;4959138;28;20055;-79
2023/08/05 12:34:54;;;;;;;6.97;3.45;;;;;;;;;;4964845;28;20051;-78
2023/08/05 12:37:20;;;;;;;6.95;4.15;;;;;;;;;;4958834;28;20043;-78
2023/08/05 12:39:46;;;;;;;8.93;3.70;;;;;;;;;;4975236;28;20141;-79
2023/08/05 12:42:13;;;;;;;8.43;3.70;;;;;;;;;;4977344;28;20449;-79
2023/08/05 12:44:39;;;;;;;6.53;3.80;;;;;;;;;;4972929;28;20121;-79
2023/08/05 12:47:05;;;;;;;7.25;4.13;;;;;;;;;;4978244;28;20054;-80
2023/08/05 12:49:31;;;;;;;8.50;3.85;;;;;;;;;;4977740;28;20366;-80
2023/08/05 12:51:57;;;;;;;6.80;4.10;;;;;;;;;;4977870;28;20050;-79
2023/08/05 12:54:23;;;;;;;7.95;4.10;;;;;;;;;;4977803;28;20224;-80
2023/08/05 12:56:49;;;;;;;7.20;3.75;;;;;;;;;;4976213;28;20553;-80
2023/08/05 12:59:15;;;;;;;7.03;3.50;;;;;;;;;;4977316;28;20061;-79
2023/08/05 13:01:41;;;;;;;8.30;4.82;;;;;;;;;;4975161;28;20050;-79
2023/08/05 13:04:07;;;;;;;7.85;5.03;;;;;;;;;;4973514;28;20473;-79
2023/08/05 13:06:33;;;;;;;9.55;5.35;;;;;;;;;;4972987;28;20038;-79
2023/08/05 13:08:59;;;;;;;8.40;4.82;;;;;;;;;;4974799;28;20058;-79
2023/08/05 13:11:25;;;;;;;7.07;5.40;;;;;;;;;;4970102;28;20047;-79
2023/08/05 13:13:51;;;;;;;8.73;5.35;;;;;;;;;;4964293;28;20050;-79
2023/08/05 13:16:17;;;;;;;9.02;5.75;;;;;;;;;;4976052;28;20434;-78
2023/08/05 13:18:44;;;;;;;8.25;5.07;;;;;;;;;;4975660;28;20050;-79
2023/08/05 13:21:10;;;;;;;7.65;5.45;;;;;;;;;;4974207;28;21149;-79
2023/08/05 13:23:36;;;;;;;8.52;5.30;;;;;;;;;;4972304;28;20065;-79
2023/08/05 13:26:02;;;;;;;8.85;5.43;;;;;;;;;;4973177;28;20069;-79
2023/08/05 13:28:28;;;;;;;9.10;5.20;;;;;;;;;;4974785;28;20054;-79
2023/08/05 13:31:01;;;;;;;8.85;5.43;;;;;;;;;;4974581;28;20054;-79
2023/08/05 13:33:27;;;;;;;8.80;5.32;;;;;;;;;;4975271;28;20049;-79
2023/08/05 13:35:53;;;;;;;9.73;5.43;;;;;;;;;;4964516;28;20055;-79
2023/08/05 13:38:19;;;;;;;11.85;5.43;;;;;;;;;;4954374;28;20055;-79
2023/08/05 13:40:50;;;;;;;8.10;5.10;;;;;;;;;;4960177;28;20050;-79
2023/08/05 13:43:16;;;;;;;8.70;4.72;;;;;;;;;;4976529;28;20050;-80
2023/08/05 13:45:51;;;;;;;8.95;5.15;;;;;;;;;;4973392;28;20050;-79
2023/08/05 13:48:17;;;;;;;10.43;5.63;;;;;;;;;;4975574;28;20051;-80
2023/08/05 13:50:44;;;;;;;9.10;5.40;;;;;;;;;;4975852;28;20046;-78
2023/08/05 13:53:10;;;;;;;7.53;5.45;;;;;;;;;;4957798;28;20042;-79
2023/08/05 13:55:36;;;;;;;7.90;5.80;;;;;;;;;;4977008;28;20047;-79
2023/08/05 13:58:02;;;;;;;9.52;6.43;;;;;;;;;;4977302;28;20138;-79
2023/08/05 14:00:28;;;;;;;9.90;6.70;;;;;;;;;;4975598;28;20086;-79
2023/08/05 14:02:54;;;;;;;8.75;6.82;;;;;;;;;;4976635;28;20107;-78
2023/08/05 14:05:20;;;;;;;8.52;6.47;;;;;;;;;;4975564;28;20049;-78
2023/08/05 14:07:48;;;;;;;9.43;7.35;;;;;;;;;;4973150;28;20060;-79
2023/08/05 14:10:14;;;;;;;9.85;7.28;;;;;;;;;;4978841;28;20054;-79
2023/08/05 14:12:40;;;;;;;10.85;7.55;;;;;;;;;;4974986;28;20043;-79
2023/08/05 14:15:06;;;;;;;9.05;7.45;;;;;;;;;;4977756;28;20050;-80
2023/08/05 14:17:32;;;;;;;9.15;7.95;;;;;;;;;;4975010;28;20046;-79
2023/08/05 14:19:59;;;;;;;10.35;6.82;;;;;;;;;;4976891;28;20046;-79
2023/08/05 14:22:25;;;;;;;10.55;7.15;;;;;;;;;;4971782;28;20052;-78
2023/08/05 14:24:51;;;;;;;8.52;6.43;;;;;;;;;;4956110;28;20405;-79
2023/08/05 14:27:17;;;;;;;8.45;6.20;;;;;;;;;;4955432;28;20054;-79
2023/08/05 14:29:43;;;;;;;9.25;5.93;;;;;;;;;;4956685;28;20058;-79
2023/08/05 14:32:09;;;;;;;8.18;5.03;;;;;;;;;;4956044;28;20097;-78
2023/08/05 14:34:35;;;;;;;6.93;4.47;;;;;;;;;;4968373;28;20142;-78
2023/08/05 14:37:01;;;;;;;7.85;4.28;;;;;;;;;;4973919;28;20134;-78
2023/08/05 14:39:28;;;;;;;13.57;4.88;;;;;;;;;;4973849;28;20050;-78